createdAt,value
2018-06-30T00:00:22.187Z,4
2018-06-30T00:01:32.305Z,4
2018-06-30T00:02:42.091Z,4
2018-06-30T00:03:52.216Z,4
2018-06-30T00:05:02.291Z,4
2018-06-30T00:06:12.098Z,4
2018-06-30T00:07:22.204Z,4
2018-06-30T00:08:32.247Z,4
2018-06-30T00:09:42.321Z,4
2018-06-30T00:10:52.120Z,0
2018-06-30T00:12:02.206Z,0
2018-06-30T00:13:12.038Z,0
2018-06-30T00:14:21.821Z,4
2018-06-30T00:15:31.614Z,4
2018-06-30T00:16:41.675Z,4
2018-06-30T00:17:51.202Z,4
2018-06-30T00:19:01.062Z,4
2018-06-30T00:20:10.869Z,4
2018-06-30T00:21:20.926Z,4
2018-06-30T00:22:30.992Z,4
2018-06-30T00:23:40.774Z,4
2018-06-30T00:24:50.624Z,4
2018-06-30T00:26:00.685Z,4
2018-06-30T00:27:10.498Z,4
2018-06-30T00:28:20.564Z,4
2018-06-30T00:29:30.367Z,8
2018-06-30T00:30:40.504Z,8
2018-06-30T00:31:50.309Z,4
2018-06-30T00:33:00.366Z,4
2018-06-30T00:34:10.180Z,8
2018-06-30T00:35:20.230Z,8
2018-06-30T00:36:30.075Z,4
2018-06-30T00:37:40.153Z,4
2018-06-30T00:38:50.208Z,8
2018-06-30T00:40:00.281Z,8
2018-06-30T00:41:09.804Z,8
2018-06-30T00:42:19.644Z,8
2018-06-30T00:43:29.433Z,8
2018-06-30T00:44:38.964Z,8
2018-06-30T00:45:49.029Z,12
2018-06-30T00:46:58.551Z,8
2018-06-30T00:48:08.394Z,12
2018-06-30T00:49:18.457Z,12
2018-06-30T00:50:28.523Z,12
2018-06-30T00:51:38.315Z,12
2018-06-30T00:52:47.845Z,16
2018-06-30T00:53:57.961Z,12
2018-06-30T00:55:07.490Z,16
2018-06-30T00:56:17.544Z,16
2018-06-30T00:57:27.593Z,16
2018-06-30T00:58:37.391Z,16
2018-06-30T00:59:47.232Z,20
2018-06-30T01:00:57.306Z,20
2018-06-30T01:02:07.099Z,24
2018-06-30T01:03:16.369Z,24
2018-06-30T01:04:26.431Z,24
2018-06-30T01:05:36.014Z,28
2018-06-30T01:06:45.789Z,28
2018-06-30T01:07:55.579Z,32
2018-06-30T01:09:05.640Z,28
2018-06-30T01:10:15.425Z,32
2018-06-30T01:11:25.541Z,36
2018-06-30T01:12:35.338Z,36
2018-06-30T01:13:45.401Z,40
2018-06-30T01:14:55.463Z,44
2018-06-30T01:16:05.536Z,44
2018-06-30T01:17:15.392Z,48
2018-06-30T01:18:24.936Z,48
2018-06-30T01:19:34.995Z,52
2018-06-30T01:20:45.064Z,56
2018-06-30T01:21:54.846Z,60
2018-06-30T01:23:04.943Z,64
2018-06-30T01:24:14.993Z,72
2018-06-30T01:25:24.505Z,72
2018-06-30T01:26:34.561Z,80
2018-06-30T01:27:44.112Z,84
2018-06-30T01:28:53.965Z,88
2018-06-30T01:30:04.014Z,92
2018-06-30T01:31:13.544Z,100
2018-06-30T01:32:23.329Z,104
2018-06-30T01:33:33.396Z,112
2018-06-30T01:34:43.242Z,120
2018-06-30T01:35:53.019Z,124
2018-06-30T01:37:02.551Z,132
2018-06-30T01:38:12.355Z,140
2018-06-30T01:39:22.136Z,148
2018-06-30T01:40:32.252Z,156
2018-06-30T01:41:42.038Z,164
2018-06-30T01:42:51.577Z,172
2018-06-30T01:44:01.655Z,184
2018-06-30T01:45:11.465Z,196
2018-06-30T01:46:20.776Z,204
2018-06-30T01:47:30.836Z,216
2018-06-30T01:48:40.892Z,224
2018-06-30T01:49:50.691Z,240
2018-06-30T01:51:00.743Z,248
2018-06-30T01:52:10.314Z,260
2018-06-30T01:53:20.394Z,272
2018-06-30T01:54:30.439Z,288
2018-06-30T01:55:40.507Z,300
2018-06-30T01:56:50.549Z,316
2018-06-30T01:58:00.386Z,332
2018-06-30T01:59:10.447Z,348
2018-06-30T02:00:20.525Z,360
2018-06-30T02:01:30.332Z,376
2018-06-30T02:02:40.169Z,392
2018-06-30T02:03:50.011Z,412
2018-06-30T02:05:00.080Z,424
2018-06-30T02:06:10.147Z,448
2018-06-30T02:07:19.676Z,464
2018-06-30T02:08:29.473Z,480
2018-06-30T02:09:39.307Z,500
2018-06-30T02:10:49.406Z,520
2018-06-30T02:11:59.475Z,540
2018-06-30T02:13:09.004Z,556
2018-06-30T02:14:19.064Z,580
2018-06-30T02:15:29.171Z,600
2018-06-30T02:16:38.713Z,620
2018-06-30T02:17:48.760Z,640
2018-06-30T02:18:58.569Z,660
2018-06-30T02:20:08.667Z,680
2018-06-30T02:21:18.228Z,704
2018-06-30T02:22:27.756Z,720
2018-06-30T02:23:37.814Z,744
2018-06-30T02:24:47.886Z,764
2018-06-30T02:25:57.952Z,788
2018-06-30T02:27:08.077Z,808
2018-06-30T02:28:17.598Z,832
2018-06-30T02:29:27.677Z,852
2018-06-30T02:30:37.468Z,876
2018-06-30T02:31:47.575Z,896
2018-06-30T02:32:57.704Z,916
2018-06-30T02:34:07.746Z,936
2018-06-30T02:35:17.819Z,960
2018-06-30T02:36:27.870Z,980
2018-06-30T02:37:37.934Z,1004
2018-06-30T02:38:48.059Z,1028
2018-06-30T02:39:58.140Z,1048
2018-06-30T02:41:08.207Z,1072
2018-06-30T02:42:18.011Z,1088
2018-06-30T02:43:28.094Z,1116
2018-06-30T02:44:38.236Z,1140
2018-06-30T02:45:48.360Z,1156
2018-06-30T02:46:58.268Z,1176
2018-06-30T02:48:07.804Z,1200
2018-06-30T02:49:17.600Z,1220
2018-06-30T02:50:27.711Z,1244
2018-06-30T02:51:37.769Z,1260
2018-06-30T02:52:47.828Z,1280
2018-06-30T02:53:57.628Z,1300
2018-06-30T02:55:07.446Z,1324
2018-06-30T02:56:17.576Z,1340
2018-06-30T02:57:27.651Z,1360
2018-06-30T02:58:37.450Z,1380
2018-06-30T02:59:46.708Z,1400
2018-06-30T03:03:36.204Z,1468
2018-06-30T03:04:46.276Z,1484
2018-06-30T03:05:56.343Z,1504
2018-06-30T03:07:06.407Z,1520
2018-06-30T03:08:16.237Z,1536
2018-06-30T03:09:26.089Z,1556
2018-06-30T03:10:35.619Z,1576
2018-06-30T03:11:45.739Z,1596
2018-06-30T03:12:55.821Z,1620
2018-06-30T03:14:05.608Z,1640
2018-06-30T03:15:15.440Z,1660
2018-06-30T03:16:25.501Z,1684
2018-06-30T03:17:35.576Z,1700
2018-06-30T03:18:45.386Z,1716
2018-06-30T03:19:54.901Z,1736
2018-06-30T03:21:04.474Z,1752
2018-06-30T03:22:14.280Z,1772
2018-06-30T03:23:24.350Z,1784
2018-06-30T03:24:34.437Z,1800
2018-06-30T03:25:44.520Z,1820
2018-06-30T03:26:54.104Z,1836
2018-06-30T03:28:04.177Z,1852
2018-06-30T03:29:14.237Z,1868
2018-06-30T03:30:24.349Z,1884
2018-06-30T03:31:34.445Z,1900
2018-06-30T03:32:44.733Z,1912
2018-06-30T03:33:54.804Z,1928
2018-06-30T03:35:04.872Z,1944
2018-06-30T03:36:14.951Z,1960
2018-06-30T03:37:24.750Z,1972
2018-06-30T03:38:35.199Z,1988
2018-06-30T03:39:45.082Z,2004
2018-06-30T03:40:55.137Z,2020
2018-06-30T03:42:05.201Z,2036
2018-06-30T03:43:15.311Z,2048
2018-06-30T03:44:25.447Z,2064
2018-06-30T03:45:35.524Z,2076
2018-06-30T03:46:45.334Z,2092
2018-06-30T03:47:55.398Z,2108
2018-06-30T03:49:05.464Z,2120
2018-06-30T03:50:15.056Z,2132
2018-06-30T03:51:25.129Z,2144
2018-06-30T03:52:34.929Z,2156
2018-06-30T03:53:44.995Z,2172
2018-06-30T03:54:54.784Z,2184
2018-06-30T03:56:04.893Z,2196
2018-06-30T03:57:14.424Z,2208
2018-06-30T03:58:24.496Z,2220
2018-06-30T03:59:34.576Z,2232
2018-06-30T04:00:44.115Z,2240
2018-06-30T04:01:54.004Z,2252
2018-06-30T04:03:03.791Z,2256
2018-06-30T04:04:13.853Z,2256
2018-06-30T04:05:23.382Z,2280
2018-06-30T04:06:33.434Z,2292
2018-06-30T04:07:43.299Z,2300
2018-06-30T04:08:53.364Z,2304
2018-06-30T04:10:03.427Z,2316
2018-06-30T04:11:13.501Z,2332
2018-06-30T04:12:23.559Z,2340
2018-06-30T04:13:33.140Z,2344
2018-06-30T04:14:43.211Z,2324
2018-06-30T04:15:53.032Z,2348
2018-06-30T04:17:02.830Z,2364
2018-06-30T04:18:12.360Z,2380
2018-06-30T04:19:22.205Z,2388
2018-06-30T04:20:31.733Z,2396
2018-06-30T04:21:41.264Z,2408
2018-06-30T04:22:50.778Z,2416
2018-06-30T04:24:00.854Z,2424
2018-06-30T04:25:10.957Z,2432
2018-06-30T04:26:20.752Z,2436
2018-06-30T04:27:30.806Z,2436
2018-06-30T04:28:40.880Z,2456
2018-06-30T04:29:50.678Z,2460
2018-06-30T04:31:00.536Z,2460
2018-06-30T04:32:10.348Z,2464
2018-06-30T04:33:20.145Z,2468
2018-06-30T04:34:29.682Z,2476
2018-06-30T04:35:39.221Z,2476
2018-06-30T04:36:49.069Z,2480
2018-06-30T04:37:59.122Z,2488
2018-06-30T04:39:08.385Z,2484
2018-06-30T04:40:18.443Z,2496
2018-06-30T04:41:28.506Z,2520
2018-06-30T04:42:38.612Z,2528
2018-06-30T04:43:48.135Z,2536
2018-06-30T04:44:57.940Z,2544
2018-06-30T04:46:07.190Z,2564
2018-06-30T04:47:17.010Z,2576
2018-06-30T04:48:26.861Z,2576
2018-06-30T04:49:36.928Z,2580
2018-06-30T04:50:46.725Z,2588
2018-06-30T04:51:56.802Z,2596
2018-06-30T04:53:06.615Z,2600
2018-06-30T04:54:16.473Z,2608
2018-06-30T04:55:25.712Z,2612
2018-06-30T04:56:35.792Z,2620
2018-06-30T04:57:45.721Z,2628
2018-06-30T04:58:55.779Z,2632
2018-06-30T05:00:05.898Z,2640
2018-06-30T05:01:15.690Z,2644
2018-06-30T05:02:25.750Z,2652
2018-06-30T05:03:35.802Z,2652
2018-06-30T05:04:45.329Z,2660
2018-06-30T05:05:55.191Z,2660
2018-06-30T05:07:04.719Z,2668
2018-06-30T05:08:14.523Z,2672
2018-06-30T05:09:24.346Z,2676
2018-06-30T05:10:34.403Z,2660
2018-06-30T05:11:44.259Z,2672
2018-06-30T05:12:54.317Z,2684
2018-06-30T05:14:04.242Z,2692
2018-06-30T05:15:14.315Z,2700
2018-06-30T05:16:24.385Z,2704
2018-06-30T05:17:34.498Z,2712
2018-06-30T05:18:44.307Z,2712
2018-06-30T05:19:54.373Z,2724
2018-06-30T05:21:04.230Z,2724
2018-06-30T05:22:14.029Z,2720
2018-06-30T05:23:23.871Z,2728
2018-06-30T05:24:33.678Z,2736
2018-06-30T05:25:43.476Z,2736
2018-06-30T05:26:53.300Z,2740
2018-06-30T05:28:03.369Z,2744
2018-06-30T05:29:13.226Z,2752
2018-06-30T05:30:23.282Z,2752
2018-06-30T05:31:33.341Z,2756
2018-06-30T05:32:43.132Z,2760
2018-06-30T05:33:52.918Z,2768
2018-06-30T05:35:03.032Z,2760
2018-06-30T05:36:12.853Z,2764
2018-06-30T05:37:22.648Z,2784
2018-06-30T05:38:32.716Z,2780
2018-06-30T05:39:42.830Z,2780
2018-06-30T05:40:52.943Z,2784
2018-06-30T05:42:03.043Z,2784
2018-06-30T05:43:13.105Z,2784
2018-06-30T05:44:22.634Z,2788
2018-06-30T05:45:32.174Z,2792
2018-06-30T05:46:42.287Z,2796
2018-06-30T05:47:52.351Z,2800
2018-06-30T05:49:02.431Z,2796
2018-06-30T05:50:12.218Z,2800
2018-06-30T05:51:22.288Z,2800
2018-06-30T05:52:32.414Z,2808
2018-06-30T05:53:42.468Z,2808
2018-06-30T05:54:52.268Z,2812
2018-06-30T05:56:02.343Z,2816
2018-06-30T05:57:12.131Z,2824
2018-06-30T05:58:22.249Z,2824
2018-06-30T05:59:31.997Z,2824
2018-06-30T06:00:42.081Z,2820
2018-06-30T06:01:51.610Z,2828
2018-06-30T06:03:01.391Z,2836
2018-06-30T06:04:11.236Z,2840
2018-06-30T06:05:21.297Z,2836
2018-06-30T06:06:30.817Z,2836
2018-06-30T06:07:40.078Z,2840
2018-06-30T06:08:49.919Z,2840
2018-06-30T06:10:00.177Z,2840
2018-06-30T06:11:10.036Z,2844
2018-06-30T06:12:20.108Z,2848
2018-06-30T06:13:30.180Z,2852
2018-06-30T06:14:39.992Z,2872
2018-06-30T06:15:49.843Z,2856
2018-06-30T06:16:59.655Z,2868
2018-06-30T06:18:08.914Z,2872
2018-06-30T06:19:18.717Z,2872
2018-06-30T06:20:28.518Z,2872
2018-06-30T06:21:38.377Z,2872
2018-06-30T06:22:48.168Z,2888
2018-06-30T06:23:57.707Z,2884
2018-06-30T06:25:07.251Z,2884
2018-06-30T06:26:17.319Z,2884
2018-06-30T06:27:27.324Z,2888
2018-06-30T06:28:37.484Z,2888
2018-06-30T06:29:47.300Z,2888
2018-06-30T06:30:57.380Z,2896
2018-06-30T06:32:07.453Z,2896
2018-06-30T06:33:17.573Z,2900
2018-06-30T06:34:27.356Z,2900
2018-06-30T06:35:37.432Z,2904
2018-06-30T06:37:06.635Z,2912
2018-06-30T06:38:17.049Z,2912
2018-06-30T06:39:27.136Z,2916
2018-06-30T06:40:37.518Z,2920
2018-06-30T06:41:48.143Z,2924
2018-06-30T06:42:58.123Z,2928
2018-06-30T06:44:08.005Z,2928
2018-06-30T06:45:18.100Z,2932
2018-06-30T06:46:27.926Z,2940
2018-06-30T06:47:37.991Z,2944
2018-06-30T06:48:47.799Z,2952
2018-06-30T06:49:57.377Z,2952
2018-06-30T06:51:07.318Z,2956
2018-06-30T06:52:17.028Z,2960
2018-06-30T06:53:26.831Z,2964
2018-06-30T06:54:36.093Z,2968
2018-06-30T06:55:45.939Z,2972
2018-06-30T06:56:55.752Z,2976
2018-06-30T06:58:05.565Z,2984
2018-06-30T06:59:15.425Z,2984
2018-06-30T07:00:25.224Z,2992
2018-06-30T07:01:35.359Z,2996
2018-06-30T07:02:44.958Z,3000
2018-06-30T07:03:55.034Z,3004
2018-06-30T07:05:04.848Z,3012
2018-06-30T07:06:14.391Z,3016
2018-06-30T07:07:24.242Z,3024
2018-06-30T07:08:34.026Z,3028
2018-06-30T07:09:43.553Z,3036
2018-06-30T07:10:53.355Z,3040
2018-06-30T07:12:03.427Z,3040
2018-06-30T07:13:13.008Z,3044
2018-06-30T07:14:22.806Z,3048
2018-06-30T07:15:32.069Z,3056
2018-06-30T07:16:41.598Z,3056
2018-06-30T07:17:51.402Z,3060
2018-06-30T07:19:01.520Z,3064
2018-06-30T07:20:11.572Z,3072
2018-06-30T07:21:21.371Z,3072
2018-06-30T07:22:31.572Z,3072
2018-06-30T07:23:41.390Z,3080
2018-06-30T07:24:51.248Z,3084
2018-06-30T07:26:00.775Z,3088
2018-06-30T07:27:10.299Z,3096
2018-06-30T07:28:19.816Z,3096
2018-06-30T07:29:29.877Z,3100
2018-06-30T07:30:40.104Z,3100
2018-06-30T07:31:49.395Z,3108
2018-06-30T07:32:59.182Z,3112
2018-06-30T07:34:09.317Z,3120
2018-06-30T07:35:19.103Z,3128
2018-06-30T07:36:29.255Z,3140
2018-06-30T07:37:39.188Z,3144
2018-06-30T07:38:49.261Z,3140
2018-06-30T07:39:59.324Z,3144
2018-06-30T07:41:09.140Z,3148
2018-06-30T07:42:19.252Z,3156
2018-06-30T07:43:29.033Z,3160
2018-06-30T07:44:38.835Z,3168
2018-06-30T07:45:48.640Z,3176
2018-06-30T07:46:57.911Z,3180
2018-06-30T07:48:08.051Z,3188
2018-06-30T07:49:17.850Z,3200
2018-06-30T07:50:27.609Z,3204
2018-06-30T07:51:37.682Z,3212
2018-06-30T07:52:47.935Z,3216
2018-06-30T07:53:58.048Z,3224
2018-06-30T07:55:07.856Z,3220
2018-06-30T07:56:17.920Z,3232
2018-06-30T07:57:27.197Z,3232
2018-06-30T07:58:37.270Z,3240
2018-06-30T07:59:47.301Z,3244
2018-06-30T08:00:57.366Z,3248
2018-06-30T08:02:06.779Z,3252
2018-06-30T08:03:17.124Z,3260
2018-06-30T08:04:26.653Z,3268
2018-06-30T08:05:36.764Z,3280
2018-06-30T08:06:46.555Z,3284
2018-06-30T08:07:56.573Z,3292
2018-06-30T08:09:06.393Z,3292
2018-06-30T08:10:16.457Z,3300
2018-06-30T08:11:26.617Z,3308
2018-06-30T08:12:36.694Z,3316
2018-06-30T08:13:46.829Z,3328
2018-06-30T08:14:56.657Z,3336
2018-06-30T08:16:06.473Z,3340
2018-06-30T08:17:16.608Z,3352
2018-06-30T08:18:26.685Z,3356
2018-06-30T08:19:36.471Z,3360
2018-06-30T08:20:46.515Z,3372
2018-06-30T08:21:56.042Z,3376
2018-06-30T08:23:06.161Z,3380
2018-06-30T08:24:15.969Z,3392
2018-06-30T08:25:25.499Z,3404
2018-06-30T08:26:35.557Z,3412
2018-06-30T08:27:45.616Z,3420
2018-06-30T08:28:55.751Z,3432
2018-06-30T08:30:05.310Z,3432
2018-06-30T08:31:15.391Z,3444
2018-06-30T08:32:25.195Z,3452
2018-06-30T08:33:35.270Z,3456
2018-06-30T08:34:45.137Z,3460
2018-06-30T08:35:54.930Z,3476
2018-06-30T08:37:04.736Z,3476
2018-06-30T08:38:14.809Z,3488
2018-06-30T08:39:24.596Z,3504
2018-06-30T08:40:34.707Z,3512
2018-06-30T08:41:44.843Z,3520
2018-06-30T08:42:54.656Z,3528
2018-06-30T08:44:04.193Z,3532
2018-06-30T08:45:14.005Z,3540
2018-06-30T08:46:24.132Z,3548
2018-06-30T08:47:33.939Z,3564
2018-06-30T08:48:44.012Z,3568
2018-06-30T08:49:53.808Z,3572
2018-06-30T08:51:03.674Z,3584
2018-06-30T08:52:13.234Z,3596
2018-06-30T08:53:23.047Z,3604
2018-06-30T08:54:32.842Z,3616
2018-06-30T08:55:43.136Z,3620
2018-06-30T08:56:53.457Z,3632
2018-06-30T08:58:03.050Z,3636
2018-06-30T08:59:12.843Z,3652
2018-06-30T09:00:22.907Z,3660
2018-06-30T09:01:32.715Z,3668
2018-06-30T09:02:42.778Z,3680
2018-06-30T09:03:52.365Z,3692
2018-06-30T09:05:02.433Z,3696
2018-06-30T09:06:11.716Z,3708
2018-06-30T09:07:21.582Z,3716
2018-06-30T09:08:31.380Z,3728
2018-06-30T09:09:41.232Z,3736
2018-06-30T09:10:51.535Z,3748
2018-06-30T09:12:01.534Z,3736
2018-06-30T09:13:11.947Z,3780
2018-06-30T09:14:21.763Z,3796
2018-06-30T09:15:31.331Z,3804
2018-06-30T09:16:41.399Z,3820
2018-06-30T09:17:51.469Z,3832
2018-06-30T09:19:01.518Z,3840
2018-06-30T09:20:11.660Z,3852
2018-06-30T09:21:21.576Z,3856
2018-06-30T09:22:31.626Z,3868
2018-06-30T09:23:41.453Z,3884
2018-06-30T09:24:50.992Z,3892
2018-06-30T09:26:00.795Z,3900
2018-06-30T09:27:10.945Z,3908
2018-06-30T09:28:20.744Z,3924
2018-06-30T09:29:30.562Z,3932
2018-06-30T09:30:40.629Z,3948
2018-06-30T09:31:50.433Z,3956
2018-06-30T09:33:00.557Z,3964
2018-06-30T09:34:10.364Z,3912
2018-06-30T09:35:20.445Z,3980
2018-06-30T09:36:30.265Z,3988
2018-06-30T09:37:40.059Z,3996
2018-06-30T09:38:49.644Z,4008
2018-06-30T09:39:59.434Z,4016
2018-06-30T09:41:09.501Z,4020
2018-06-30T09:42:19.294Z,4032
2018-06-30T09:43:28.558Z,4044
2018-06-30T09:44:38.863Z,4052
2018-06-30T09:45:48.694Z,4056
2018-06-30T09:46:58.776Z,4068
2018-06-30T09:48:08.326Z,4076
2018-06-30T09:49:18.406Z,4088
2018-06-30T09:50:28.540Z,4092
2018-06-30T09:51:38.349Z,4104
2018-06-30T09:52:47.861Z,4116
2018-06-30T09:53:57.115Z,4124
2018-06-30T09:55:06.649Z,4136
2018-06-30T09:56:16.504Z,4144
2018-06-30T09:57:26.630Z,4152
2018-06-30T09:58:36.421Z,4168
2018-06-30T09:59:46.479Z,4172
2018-06-30T10:00:56.274Z,4184
2018-06-30T10:02:06.126Z,4188
2018-06-30T10:03:15.945Z,4196
2018-06-30T10:04:26.025Z,4208
2018-06-30T10:05:36.079Z,4212
2018-06-30T10:06:46.254Z,4224
2018-06-30T10:07:56.125Z,4232
2018-06-30T10:09:06.082Z,4244
2018-06-30T10:10:16.210Z,4252
2018-06-30T10:11:26.285Z,4264
2018-06-30T10:12:35.898Z,4272
2018-06-30T10:13:45.553Z,4280
2018-06-30T10:14:55.340Z,4288
2018-06-30T10:16:04.889Z,4296
2018-06-30T10:17:14.953Z,4304
2018-06-30T10:18:25.021Z,4308
2018-06-30T10:19:35.488Z,4320
2018-06-30T10:20:44.989Z,4324
2018-06-30T10:21:55.166Z,4332
2018-06-30T10:23:05.251Z,4344
2018-06-30T10:24:15.052Z,4348
2018-06-30T10:25:25.177Z,4356
2018-06-30T10:26:35.259Z,4364
2018-06-30T10:27:45.332Z,4376
2018-06-30T10:28:55.405Z,4384
2018-06-30T10:30:05.199Z,4392
2018-06-30T10:31:15.464Z,4404
2018-06-30T10:32:25.621Z,4416
2018-06-30T10:33:35.414Z,4424
2018-06-30T10:34:45.495Z,4432
2018-06-30T10:35:55.592Z,4436
2018-06-30T10:37:05.448Z,4448
2018-06-30T10:38:15.263Z,4460
2018-06-30T10:39:25.078Z,4468
2018-06-30T10:40:34.630Z,4476
2018-06-30T10:41:44.439Z,4488
2018-06-30T10:42:54.276Z,4496
2018-06-30T10:44:04.089Z,4504
2018-06-30T10:45:13.365Z,4516
2018-06-30T10:46:23.459Z,4524
2018-06-30T10:47:33.526Z,4532
2018-06-30T10:48:43.647Z,4540
2018-06-30T10:49:53.715Z,4548
2018-06-30T10:51:03.789Z,4556
2018-06-30T10:52:13.860Z,4564
2018-06-30T10:53:23.919Z,4568
2018-06-30T10:54:34.044Z,4576
2018-06-30T10:55:43.852Z,4592
2018-06-30T10:56:53.380Z,4596
2018-06-30T10:58:03.167Z,4604
2018-06-30T10:59:13.006Z,4612
2018-06-30T11:00:23.303Z,4624
2018-06-30T11:01:33.596Z,4632
2018-06-30T11:02:43.656Z,4640
2018-06-30T11:03:53.256Z,4644
2018-06-30T11:05:03.080Z,4652
2018-06-30T11:06:12.993Z,4652
2018-06-30T11:07:23.075Z,4672
2018-06-30T11:08:32.876Z,4680
2018-06-30T11:09:42.685Z,4688
2018-06-30T11:10:52.248Z,4696
2018-06-30T11:12:02.424Z,4708
2018-06-30T11:13:12.500Z,4728
2018-06-30T11:14:22.563Z,4744
2018-06-30T11:15:32.369Z,4760
2018-06-30T11:16:42.495Z,4784
2018-06-30T11:17:52.625Z,4804
2018-06-30T11:19:01.629Z,4828
2018-06-30T11:20:11.954Z,4868
2018-06-30T11:21:21.981Z,4904
2018-06-30T11:22:32.100Z,4932
2018-06-30T11:23:41.919Z,4956
2018-06-30T11:24:52.019Z,4976
2018-06-30T11:26:01.831Z,5004
2018-06-30T11:27:11.628Z,5004
2018-06-30T11:28:21.709Z,5024
2018-06-30T11:29:31.882Z,5040
2018-06-30T11:30:42.169Z,5056
2018-06-30T11:31:51.962Z,5088
2018-06-30T11:33:02.046Z,5152
2018-06-30T11:34:12.114Z,5204
2018-06-30T11:35:21.949Z,5240
2018-06-30T11:36:31.735Z,5288
2018-06-30T11:37:41.804Z,5456
2018-06-30T11:38:51.341Z,5952
2018-06-30T11:40:01.413Z,7108
2018-06-30T11:41:11.262Z,18272
2018-06-30T11:42:21.057Z,70016
2018-06-30T11:43:31.138Z,94528
2018-06-30T11:44:40.958Z,94240
2018-06-30T11:45:51.032Z,97632
2018-06-30T11:47:00.900Z,96896
2018-06-30T11:48:10.993Z,95968
2018-06-30T11:49:20.807Z,94208
2018-06-30T11:50:31.200Z,93856
2018-06-30T11:51:41.109Z,96960
2018-06-30T11:52:50.952Z,97248
2018-06-30T11:54:00.497Z,95648
2018-06-30T11:55:10.320Z,100928
2018-06-30T11:56:20.413Z,96032
2018-06-30T11:57:30.228Z,92160
2018-06-30T11:58:40.108Z,95712
2018-06-30T11:59:50.185Z,96512
2018-06-30T12:00:59.720Z,98816
2018-06-30T12:02:09.445Z,94880
2018-06-30T12:03:19.430Z,98176
2018-06-30T12:04:29.613Z,96128
2018-06-30T12:05:39.709Z,95168
2018-06-30T12:06:49.530Z,94048
2018-06-30T12:07:59.077Z,93856
2018-06-30T12:09:08.360Z,92640
2018-06-30T12:10:18.516Z,89984
2018-06-30T12:11:28.342Z,93568
2018-06-30T12:12:38.133Z,95296
2018-06-30T12:13:47.925Z,95040
2018-06-30T12:14:57.994Z,93600
2018-06-30T12:16:07.874Z,84544
2018-06-30T12:17:17.688Z,82336
2018-06-30T12:18:27.514Z,81696
2018-06-30T12:19:37.326Z,87712
2018-06-30T12:20:46.870Z,84384
2018-06-30T12:21:57.097Z,83552
2018-06-30T12:23:06.645Z,84704
2018-06-30T12:24:16.738Z,88352
2018-06-30T12:25:26.864Z,89920
2018-06-30T12:26:36.693Z,96992
2018-06-30T12:27:46.569Z,94624
2018-06-30T12:28:56.382Z,95392
2018-06-30T12:30:06.205Z,94400
2018-06-30T12:31:16.042Z,93664
2018-06-30T12:32:26.530Z,90752
2018-06-30T12:33:36.688Z,83104
2018-06-30T12:34:45.958Z,79456
2018-06-30T12:35:55.790Z,73824
2018-06-30T12:37:05.625Z,61216
2018-06-30T12:38:14.904Z,62464
2018-06-30T12:39:24.514Z,72384
2018-06-30T12:40:34.626Z,83264
2018-06-30T12:41:44.724Z,91104
2018-06-30T12:42:54.541Z,91136
2018-06-30T12:44:04.362Z,89440
2018-06-30T12:45:14.514Z,87360
2018-06-30T12:46:24.612Z,88480
2018-06-30T12:47:34.722Z,90720
2018-06-30T12:48:44.835Z,88288
2018-06-30T12:49:54.379Z,86240
2018-06-30T12:51:04.243Z,86240
2018-06-30T12:52:14.362Z,92224
2018-06-30T12:53:24.463Z,91456
2018-06-30T12:54:35.385Z,95200
2018-06-30T12:55:46.125Z,99232
2018-06-30T12:56:56.317Z,93120
2018-06-30T12:58:06.424Z,92192
2018-06-30T12:59:16.507Z,93184
2018-06-30T13:00:26.601Z,98208
2018-06-30T13:01:36.418Z,99616
2018-06-30T13:02:46.283Z,100960
2018-06-30T13:03:56.739Z,98176
2018-06-30T13:05:06.566Z,97824
2018-06-30T13:06:16.669Z,98464
2018-06-30T13:07:26.768Z,97792
2018-06-30T13:08:36.658Z,96576
2018-06-30T13:09:46.742Z,98720
2018-06-30T13:10:56.840Z,100512
2018-06-30T13:12:06.670Z,100672
2018-06-30T13:13:16.746Z,103136
2018-06-30T13:14:26.335Z,103200
2018-06-30T13:15:36.162Z,102176
2018-06-30T13:16:45.991Z,93312
2018-06-30T13:17:55.266Z,92288
2018-06-30T13:19:04.812Z,90976
2018-06-30T13:20:14.949Z,92000
2018-06-30T13:21:25.038Z,91968
2018-06-30T13:22:35.146Z,93536
2018-06-30T13:23:44.713Z,96064
2018-06-30T13:24:54.537Z,93984
2018-06-30T13:26:04.132Z,92480
2018-06-30T13:27:13.953Z,93504
2018-06-30T13:28:24.025Z,93440
2018-06-30T13:29:34.116Z,89504
2018-06-30T13:30:44.214Z,91712
2018-06-30T13:31:54.364Z,89952
2018-06-30T13:33:03.911Z,84256
2018-06-30T13:34:13.469Z,84736
2018-06-30T13:35:23.557Z,88320
2018-06-30T13:36:33.388Z,88224
2018-06-30T13:37:43.247Z,84512
2018-06-30T13:38:52.796Z,85664
2018-06-30T13:40:02.887Z,90016
2018-06-30T13:41:12.449Z,90144
2018-06-30T13:42:21.735Z,90464
2018-06-30T13:43:32.025Z,95808
2018-06-30T13:44:42.244Z,97760
2018-06-30T13:45:51.848Z,98048
2018-06-30T13:47:01.677Z,97504
2018-06-30T13:48:11.501Z,95904
2018-06-30T13:49:21.373Z,96576
2018-06-30T13:50:30.911Z,97280
2018-06-30T13:51:40.741Z,98208
2018-06-30T13:52:50.837Z,104256
2018-06-30T13:54:00.667Z,111616
2018-06-30T13:55:10.545Z,109856
2018-06-30T13:56:20.647Z,103008
2018-06-30T13:57:30.201Z,99744
2018-06-30T13:58:40.046Z,96000
2018-06-30T13:59:49.896Z,93344
2018-06-30T14:00:59.407Z,96000
2018-06-30T14:02:09.249Z,99712
2018-06-30T14:03:19.341Z,101440
2018-06-30T14:04:28.904Z,88416
2018-06-30T14:05:38.722Z,87648
2018-06-30T14:06:48.591Z,96672
2018-06-30T14:07:58.680Z,94464
2018-06-30T14:09:08.232Z,95776
2018-06-30T14:10:18.070Z,90464
2018-06-30T14:11:28.155Z,91136
2018-06-30T14:12:37.744Z,86400
2018-06-30T14:13:47.851Z,86880
2018-06-30T14:14:57.673Z,87968
2018-06-30T14:16:07.826Z,81216
2018-06-30T14:17:17.101Z,82368
2018-06-30T14:18:26.552Z,88288
2018-06-30T14:19:36.515Z,89920
2018-06-30T14:20:46.062Z,88832
2018-06-30T14:21:56.200Z,83168
2018-06-30T14:23:06.011Z,74368
2018-06-30T14:24:15.882Z,82496
2018-06-30T14:25:25.981Z,85568
2018-06-30T14:26:36.076Z,84256
2018-06-30T14:27:45.901Z,85792
2018-06-30T14:28:55.990Z,86016
2018-06-30T14:30:05.870Z,86048
2018-06-30T14:31:15.716Z,87808
2018-06-30T14:32:25.819Z,87072
2018-06-30T14:33:35.932Z,84512
2018-06-30T14:34:46.028Z,84000
2018-06-30T14:35:55.903Z,78336
2018-06-30T14:37:05.724Z,78112
2018-06-30T14:38:15.555Z,84384
2018-06-30T14:39:25.664Z,83712
2018-06-30T14:40:35.497Z,80416
2018-06-30T14:41:45.648Z,80704
2018-06-30T14:42:55.753Z,86240
2018-06-30T14:44:05.855Z,86656
2018-06-30T14:45:15.939Z,85568
2018-06-30T14:46:26.091Z,85216
2018-06-30T14:47:35.982Z,85664
2018-06-30T14:48:45.813Z,85376
2018-06-30T14:49:55.617Z,87552
2018-06-30T14:51:05.182Z,85568
2018-06-30T14:52:14.736Z,78464
2018-06-30T14:53:24.617Z,79936
2018-06-30T14:54:34.721Z,79520
2018-06-30T14:55:44.543Z,73664
2018-06-30T14:56:54.371Z,72896
2018-06-30T14:58:04.199Z,76096
2018-06-30T14:59:13.815Z,80320
2018-06-30T15:00:23.647Z,98272
2018-06-30T15:01:33.490Z,105952
2018-06-30T15:02:43.317Z,84192
2018-06-30T15:03:53.417Z,59424
2018-06-30T15:05:03.546Z,48480
2018-06-30T15:06:13.623Z,46400
2018-06-30T15:07:23.242Z,44704
2018-06-30T15:08:33.430Z,45504
2018-06-30T15:09:43.300Z,46528
2018-06-30T15:10:53.445Z,47904
2018-06-30T15:12:03.547Z,47200
2018-06-30T15:13:12.829Z,47392
2018-06-30T15:14:22.929Z,51520
2018-06-30T15:15:32.749Z,56672
2018-06-30T15:16:42.630Z,66784
2018-06-30T15:17:52.471Z,70240
2018-06-30T15:19:02.536Z,70272
2018-06-30T15:20:12.623Z,70400
2018-06-30T15:21:22.445Z,70400
2018-06-30T15:22:32.322Z,68960
2018-06-30T15:23:42.415Z,74432
2018-06-30T15:24:52.249Z,74240
2018-06-30T15:26:02.338Z,74112
2018-06-30T15:27:12.157Z,80192
2018-06-30T15:28:22.336Z,81856
2018-06-30T15:29:32.174Z,80224
2018-06-30T15:30:42.005Z,83392
2018-06-30T15:31:52.088Z,86976
2018-06-30T15:33:02.170Z,86240
2018-06-30T15:34:12.056Z,88512